createdAt,value
2022-10-20T00:03:09.920Z,6
2022-10-20T00:13:12.392Z,5.8
2022-10-20T00:23:14.402Z,5.6
2022-10-20T00:33:16.636Z,5.4
2022-10-20T00:43:18.389Z,5.4
2022-10-20T00:53:20.262Z,5.5
2022-10-20T01:03:22.905Z,5.6
2022-10-20T01:13:25.131Z,5.7
2022-10-20T01:23:27.100Z,5.8
2022-10-20T01:43:31.573Z,5.6
2022-10-20T01:53:33.967Z,5.5
2022-10-20T02:03:35.909Z,5.3
2022-10-20T02:13:37.936Z,5.1
2022-10-20T02:23:40.494Z,5.3
2022-10-20T02:33:42.486Z,5.1
2022-10-20T02:43:44.278Z,5.3
2022-10-20T02:53:46.018Z,5.2
2022-10-20T03:03:48.374Z,5
2022-10-20T03:13:50.431Z,5.2
2022-10-20T03:23:52.651Z,5.1
2022-10-20T03:33:55.091Z,5.1
2022-10-20T03:43:57.031Z,5.1
2022-10-20T03:53:58.902Z,5.1
2022-10-20T04:04:00.859Z,5.2
2022-10-20T04:14:03.279Z,5.1
2022-10-20T04:24:05.160Z,5.1
2022-10-20T04:34:07.483Z,5.3
2022-10-20T04:44:09.183Z,5.3
2022-10-20T04:54:11.641Z,5.2
2022-10-20T05:04:13.967Z,5.1
2022-10-20T05:14:16.534Z,5.2
2022-10-20T05:24:20.119Z,5.1
2022-10-20T05:34:20.962Z,5.3
2022-10-20T05:44:23.234Z,5.4
2022-10-20T05:54:25.137Z,5.6
2022-10-20T06:04:27.348Z,5.6
2022-10-20T06:14:28.996Z,5.6
2022-10-20T06:24:31.599Z,5.7
2022-10-20T06:34:33.776Z,5.8
2022-10-20T06:44:36.386Z,5.9
2022-10-20T06:54:38.273Z,5.9
2022-10-20T07:04:40.709Z,6
2022-10-20T07:14:43.034Z,6.2
2022-10-20T07:24:45.267Z,6.4
2022-10-20T07:34:47.470Z,6.6
2022-10-20T07:44:49.582Z,6.9
2022-10-20T07:54:55.678Z,7.1
2022-10-20T08:04:54.207Z,7.8
2022-10-20T08:14:56.554Z,8.4
2022-10-20T08:24:58.226Z,9.9
2022-10-20T08:35:00.028Z,9.9
2022-10-20T09:05:06.415Z,10.4
2022-10-20T09:15:08.141Z,10.8
2022-10-20T09:35:12.693Z,12.6
2022-10-20T09:55:17.269Z,12.4
2022-10-20T11:05:34.168Z,12.8
2022-10-20T11:55:51.595Z,13.9
2022-10-20T12:05:53.976Z,13.9
2022-10-20T12:15:56.273Z,14.1
2022-10-20T12:25:58.120Z,14.2
2022-10-20T12:36:00.103Z,14.2
2022-10-20T12:46:01.996Z,14
2022-10-20T13:06:06.324Z,13.5
2022-10-20T13:16:08.208Z,13.5
2022-10-20T13:26:10.709Z,13.4
2022-10-20T13:36:13.052Z,13.6
2022-10-20T13:46:15.368Z,13.6
2022-10-20T13:56:17.051Z,13.8
2022-10-20T14:06:19.369Z,14
2022-10-20T14:16:21.880Z,14.4
2022-10-20T14:26:24.106Z,14.5
2022-10-20T14:46:27.526Z,14.7
2022-10-20T14:56:29.886Z,14.8
2022-10-20T15:06:31.820Z,15
2022-10-20T15:16:34.210Z,14.8
2022-10-20T15:26:36.145Z,14.8
2022-10-20T15:36:40.317Z,14.8
2022-10-20T15:46:40.614Z,14.7
2022-10-20T15:56:42.928Z,14.5
2022-10-20T16:06:45.258Z,14.5
2022-10-20T16:16:47.832Z,14.4
2022-10-20T16:26:50.134Z,14.4
2022-10-20T16:36:52.097Z,14.2
2022-10-20T16:46:53.790Z,14.1
2022-10-20T16:56:55.935Z,13.9
2022-10-20T17:06:57.784Z,13.8
2022-10-20T17:17:00.362Z,13.5
2022-10-20T17:27:02.182Z,13.5
2022-10-20T17:37:04.274Z,13.4
2022-10-20T17:47:06.729Z,13.2
2022-10-20T17:57:08.622Z,13
2022-10-20T18:07:10.915Z,12.9
2022-10-20T18:17:13.359Z,13
2022-10-20T18:27:15.070Z,12.9
2022-10-20T18:57:20.735Z,13
2022-10-20T19:07:23.429Z,12.8
2022-10-20T19:17:24.589Z,12.9
2022-10-20T19:27:27.084Z,13
2022-10-20T19:47:30.586Z,12.9
2022-10-20T19:57:32.507Z,12.8
2022-10-20T20:07:34.582Z,12.9
2022-10-20T20:17:36.768Z,13.1
2022-10-20T20:27:38.956Z,13
2022-10-20T20:37:40.633Z,13.3
2022-10-20T20:47:42.197Z,13.3
2022-10-20T20:57:44.462Z,13.6
2022-10-20T21:07:46.801Z,13.9
2022-10-20T21:17:48.553Z,13.9
2022-10-20T21:27:50.883Z,14.2
2022-10-20T21:37:53.007Z,14.2
2022-10-20T21:47:54.857Z,14.1
2022-10-20T21:57:57.488Z,14.2
2022-10-20T22:07:59.448Z,14.2
2022-10-20T22:18:01.991Z,14.5
2022-10-20T22:28:04.281Z,14.5
2022-10-20T22:38:05.937Z,14.6
2022-10-20T22:48:08.055Z,14.9
2022-10-20T22:58:10.483Z,15.1
2022-10-20T23:08:12.402Z,15.3
2022-10-20T23:18:14.950Z,15.7
2022-10-20T23:28:16.952Z,15.8
2022-10-20T23:38:18.967Z,15.8
2022-10-20T23:48:21.383Z,15.8
2022-10-20T23:58:23.439Z,15.8
